sensor_id;sensor_type;location;lat;lon;timestamp;P1;durP1;ratioP1;P2;durP2;ratioP2
77217;SDS011;66214;51.302;17.068;2024-02-28T00:00:19;94.60;;;32.20;;
77217;SDS011;66214;51.302;17.068;2024-02-28T00:03:28;91.50;;;31.60;;
77217;SDS011;66214;51.302;17.068;2024-02-28T00:05:56;86.00;;;32.30;;
77217;SDS011;66214;51.302;17.068;2024-02-28T00:11:52;79.00;;;31.40;;
77217;SDS011;66214;51.302;17.068;2024-02-28T00:14:21;80.00;;;31.70;;
77217;SDS011;66214;51.302;17.068;2024-02-28T00:16:49;83.40;;;33.40;;
77217;SDS011;66214;51.302;17.068;2024-02-28T00:19:18;75.90;;;30.20;;
77217;SDS011;66214;51.302;17.068;2024-02-28T00:21:48;86.90;;;31.10;;
77217;SDS011;66214;51.302;17.068;2024-02-28T00:24:16;84.40;;;32.50;;
77217;SDS011;66214;51.302;17.068;2024-02-28T00:26:44;86.10;;;30.70;;
77217;SDS011;66214;51.302;17.068;2024-02-28T00:29:13;84.00;;;31.20;;
77217;SDS011;66214;51.302;17.068;2024-02-28T00:31:43;79.70;;;29.60;;
77217;SDS011;66214;51.302;17.068;2024-02-28T00:34:12;78.10;;;30.20;;
77217;SDS011;66214;51.302;17.068;2024-02-28T00:36:40;79.40;;;29.00;;
77217;SDS011;66214;51.302;17.068;2024-02-28T00:39:11;86.40;;;29.80;;
77217;SDS011;66214;51.302;17.068;2024-02-28T00:41:39;78.60;;;30.20;;
77217;SDS011;66214;51.302;17.068;2024-02-28T00:44:07;88.20;;;30.70;;
77217;SDS011;66214;51.302;17.068;2024-02-28T00:46:36;82.00;;;28.60;;
77217;SDS011;66214;51.302;17.068;2024-02-28T00:49:05;76.70;;;29.90;;
77217;SDS011;66214;51.302;17.068;2024-02-28T00:51:33;86.90;;;31.50;;
77217;SDS011;66214;51.302;17.068;2024-02-28T00:54:04;77.00;;;29.70;;
77217;SDS011;66214;51.302;17.068;2024-02-28T00:56:32;85.60;;;31.20;;
77217;SDS011;66214;51.302;17.068;2024-02-28T00:59:01;84.90;;;28.80;;
77217;SDS011;66214;51.302;17.068;2024-02-28T01:04:44;89.90;;;33.10;;
77217;SDS011;66214;51.302;17.068;2024-02-28T01:07:13;84.70;;;32.30;;
77217;SDS011;66214;51.302;17.068;2024-02-28T01:09:41;79.20;;;30.90;;
77217;SDS011;66214;51.302;17.068;2024-02-28T01:12:09;81.80;;;30.70;;
77217;SDS011;66214;51.302;17.068;2024-02-28T01:14:37;87.90;;;31.60;;
77217;SDS011;66214;51.302;17.068;2024-02-28T01:17:05;75.80;;;29.40;;
77217;SDS011;66214;51.302;17.068;2024-02-28T01:19:33;88.50;;;32.20;;
77217;SDS011;66214;51.302;17.068;2024-02-28T01:22:02;92.10;;;33.50;;
77217;SDS011;66214;51.302;17.068;2024-02-28T01:24:30;75.90;;;29.70;;
77217;SDS011;66214;51.302;17.068;2024-02-28T01:26:59;82.80;;;31.90;;
77217;SDS011;66214;51.302;17.068;2024-02-28T01:32:39;91.70;;;32.90;;
77217;SDS011;66214;51.302;17.068;2024-02-28T01:35:08;80.60;;;31.00;;
77217;SDS011;66214;51.302;17.068;2024-02-28T01:37:37;81.10;;;31.10;;
77217;SDS011;66214;51.302;17.068;2024-02-28T01:40:05;83.10;;;30.80;;
77217;SDS011;66214;51.302;17.068;2024-02-28T01:42:35;84.40;;;31.10;;
77217;SDS011;66214;51.302;17.068;2024-02-28T01:45:04;81.40;;;30.80;;
77217;SDS011;66214;51.302;17.068;2024-02-28T01:47:32;83.50;;;30.30;;
77217;SDS011;66214;51.302;17.068;2024-02-28T01:50:01;76.00;;;29.50;;
77217;SDS011;66214;51.302;17.068;2024-02-28T01:52:29;84.90;;;31.00;;
77217;SDS011;66214;51.302;17.068;2024-02-28T01:54:58;80.40;;;31.10;;
77217;SDS011;66214;51.302;17.068;2024-02-28T01:57:26;85.10;;;31.20;;
77217;SDS011;66214;51.302;17.068;2024-02-28T01:59:55;79.70;;;31.70;;
77217;SDS011;66214;51.302;17.068;2024-02-28T02:02:24;87.10;;;31.10;;
77217;SDS011;66214;51.302;17.068;2024-02-28T02:04:52;90.00;;;31.40;;
77217;SDS011;66214;51.302;17.068;2024-02-28T02:07:22;94.50;;;31.40;;
77217;SDS011;66214;51.302;17.068;2024-02-28T02:09:51;81.60;;;29.50;;
77217;SDS011;66214;51.302;17.068;2024-02-28T02:12:21;88.10;;;34.20;;
77217;SDS011;66214;51.302;17.068;2024-02-28T02:14:49;99.80;;;32.80;;
77217;SDS011;66214;51.302;17.068;2024-02-28T02:17:17;84.00;;;31.90;;
77217;SDS011;66214;51.302;17.068;2024-02-28T02:19:45;88.90;;;31.90;;
77217;SDS011;66214;51.302;17.068;2024-02-28T02:22:14;81.70;;;30.40;;
77217;SDS011;66214;51.302;17.068;2024-02-28T02:24:42;77.50;;;30.50;;
77217;SDS011;66214;51.302;17.068;2024-02-28T02:27:11;88.00;;;32.00;;
77217;SDS011;66214;51.302;17.068;2024-02-28T02:29:39;92.50;;;32.00;;
77217;SDS011;66214;51.302;17.068;2024-02-28T02:32:07;92.80;;;32.40;;
77217;SDS011;66214;51.302;17.068;2024-02-28T02:34:35;96.50;;;33.10;;
77217;SDS011;66214;51.302;17.068;2024-02-28T02:37:03;94.30;;;33.90;;
77217;SDS011;66214;51.302;17.068;2024-02-28T02:39:32;90.40;;;32.30;;
77217;SDS011;66214;51.302;17.068;2024-02-28T02:42:01;92.20;;;33.40;;
77217;SDS011;66214;51.302;17.068;2024-02-28T02:44:29;90.70;;;33.00;;
77217;SDS011;66214;51.302;17.068;2024-02-28T02:46:57;84.70;;;29.30;;
77217;SDS011;66214;51.302;17.068;2024-02-28T02:49:25;96.50;;;33.80;;
77217;SDS011;66214;51.302;17.068;2024-02-28T02:51:53;87.30;;;31.90;;
77217;SDS011;66214;51.302;17.068;2024-02-28T02:54:21;87.50;;;31.40;;
77217;SDS011;66214;51.302;17.068;2024-02-28T02:56:49;92.20;;;31.90;;
77217;SDS011;66214;51.302;17.068;2024-02-28T02:59:17;87.90;;;32.00;;
77217;SDS011;66214;51.302;17.068;2024-02-28T03:01:49;77.70;;;28.00;;
77217;SDS011;66214;51.302;17.068;2024-02-28T03:04:18;95.20;;;32.70;;
77217;SDS011;66214;51.302;17.068;2024-02-28T03:06:46;92.00;;;34.50;;
77217;SDS011;66214;51.302;17.068;2024-02-28T03:09:14;88.10;;;34.20;;
77217;SDS011;66214;51.302;17.068;2024-02-28T03:11:42;84.60;;;30.50;;
77217;SDS011;66214;51.302;17.068;2024-02-28T03:14:10;96.20;;;34.60;;
77217;SDS011;66214;51.302;17.068;2024-02-28T03:16:42;93.80;;;34.50;;
77217;SDS011;66214;51.302;17.068;2024-02-28T03:19:11;96.60;;;34.80;;
77217;SDS011;66214;51.302;17.068;2024-02-28T03:25:06;90.20;;;33.00;;
77217;SDS011;66214;51.302;17.068;2024-02-28T03:27:35;89.30;;;33.00;;
77217;SDS011;66214;51.302;17.068;2024-02-28T03:30:04;87.10;;;32.80;;
77217;SDS011;66214;51.302;17.068;2024-02-28T03:32:33;82.90;;;32.90;;
77217;SDS011;66214;51.302;17.068;2024-02-28T03:35:01;86.50;;;32.50;;
77217;SDS011;66214;51.302;17.068;2024-02-28T03:37:29;83.10;;;30.80;;
77217;SDS011;66214;51.302;17.068;2024-02-28T03:39:57;80.00;;;30.90;;
77217;SDS011;66214;51.302;17.068;2024-02-28T03:42:25;95.30;;;33.70;;
77217;SDS011;66214;51.302;17.068;2024-02-28T03:44:54;91.90;;;33.30;;
77217;SDS011;66214;51.302;17.068;2024-02-28T03:47:22;94.20;;;33.80;;
77217;SDS011;66214;51.302;17.068;2024-02-28T03:49:51;87.60;;;32.80;;
77217;SDS011;66214;51.302;17.068;2024-02-28T03:52:19;92.00;;;33.50;;
77217;SDS011;66214;51.302;17.068;2024-02-28T03:54:47;82.20;;;32.50;;
77217;SDS011;66214;51.302;17.068;2024-02-28T03:57:15;85.50;;;33.10;;
77217;SDS011;66214;51.302;17.068;2024-02-28T03:59:43;86.70;;;32.40;;
77217;SDS011;66214;51.302;17.068;2024-02-28T04:02:11;91.80;;;34.00;;
77217;SDS011;66214;51.302;17.068;2024-02-28T04:04:40;101.00;;;36.30;;
77217;SDS011;66214;51.302;17.068;2024-02-28T04:07:08;90.10;;;33.40;;
77217;SDS011;66214;51.302;17.068;2024-02-28T04:09:36;91.00;;;34.00;;
77217;SDS011;66214;51.302;17.068;2024-02-28T04:12:04;85.60;;;32.80;;
77217;SDS011;66214;51.302;17.068;2024-02-28T04:14:33;85.70;;;33.30;;
77217;SDS011;66214;51.302;17.068;2024-02-28T04:17:01;83.80;;;32.80;;
77217;SDS011;66214;51.302;17.068;2024-02-28T04:19:32;87.90;;;34.00;;
77217;SDS011;66214;51.302;17.068;2024-02-28T04:22:05;86.00;;;33.70;;
77217;SDS011;66214;51.302;17.068;2024-02-28T04:24:33;83.70;;;32.50;;
77217;SDS011;66214;51.302;17.068;2024-02-28T04:27:01;83.90;;;31.50;;
77217;SDS011;66214;51.302;17.068;2024-02-28T04:29:32;87.20;;;33.50;;
77217;SDS011;66214;51.302;17.068;2024-02-28T04:35:12;81.00;;;32.70;;
77217;SDS011;66214;51.302;17.068;2024-02-28T04:37:43;83.20;;;33.20;;
77217;SDS011;66214;51.302;17.068;2024-02-28T04:40:15;77.20;;;32.10;;
77217;SDS011;66214;51.302;17.068;2024-02-28T04:42:43;74.50;;;30.20;;
77217;SDS011;66214;51.302;17.068;2024-02-28T04:45:11;81.40;;;31.80;;
77217;SDS011;66214;51.302;17.068;2024-02-28T04:47:40;84.10;;;33.90;;
77217;SDS011;66214;51.302;17.068;2024-02-28T04:50:09;97.30;;;36.70;;
77217;SDS011;66214;51.302;17.068;2024-02-28T04:52:37;91.00;;;35.80;;
77217;SDS011;66214;51.302;17.068;2024-02-28T04:55:06;79.00;;;32.30;;
77217;SDS011;66214;51.302;17.068;2024-02-28T04:57:34;80.90;;;32.70;;
77217;SDS011;66214;51.302;17.068;2024-02-28T05:00:03;80.10;;;31.80;;
77217;SDS011;66214;51.302;17.068;2024-02-28T05:03:50;81.20;;;32.50;;
77217;SDS011;66214;51.302;17.068;2024-02-28T05:06:18;76.80;;;31.20;;
77217;SDS011;66214;51.302;17.068;2024-02-28T05:08:46;78.80;;;31.40;;
77217;SDS011;66214;51.302;17.068;2024-02-28T05:11:15;86.00;;;32.60;;
77217;SDS011;66214;51.302;17.068;2024-02-28T05:13:43;86.30;;;33.60;;
77217;SDS011;66214;51.302;17.068;2024-02-28T05:16:15;87.60;;;34.20;;
77217;SDS011;66214;51.302;17.068;2024-02-28T05:18:47;84.70;;;33.00;;
77217;SDS011;66214;51.302;17.068;2024-02-28T05:21:15;78.10;;;31.10;;
77217;SDS011;66214;51.302;17.068;2024-02-28T05:23:43;75.00;;;30.30;;
77217;SDS011;66214;51.302;17.068;2024-02-28T05:26:11;77.70;;;30.60;;
77217;SDS011;66214;51.302;17.068;2024-02-28T05:28:39;74.60;;;30.70;;
77217;SDS011;66214;51.302;17.068;2024-02-28T05:31:24;76.50;;;31.30;;
77217;SDS011;66214;51.302;17.068;2024-02-28T05:37:28;72.10;;;30.10;;
77217;SDS011;66214;51.302;17.068;2024-02-28T05:39:56;78.90;;;30.20;;
77217;SDS011;66214;51.302;17.068;2024-02-28T05:42:24;72.40;;;30.40;;
77217;SDS011;66214;51.302;17.068;2024-02-28T05:44:52;69.30;;;28.80;;
77217;SDS011;66214;51.302;17.068;2024-02-28T05:47:21;70.10;;;30.40;;
77217;SDS011;66214;51.302;17.068;2024-02-28T05:49:49;68.50;;;27.90;;
77217;SDS011;66214;51.302;17.068;2024-02-28T05:52:17;62.40;;;28.00;;
77217;SDS011;66214;51.302;17.068;2024-02-28T05:54:45;65.10;;;27.70;;
77217;SDS011;66214;51.302;17.068;2024-02-28T05:57:16;64.00;;;27.40;;
77217;SDS011;66214;51.302;17.068;2024-02-28T05:59:44;63.80;;;27.70;;
77217;SDS011;66214;51.302;17.068;2024-02-28T06:02:12;67.70;;;27.60;;
77217;SDS011;66214;51.302;17.068;2024-02-28T06:04:40;71.40;;;30.80;;
77217;SDS011;66214;51.302;17.068;2024-02-28T06:07:09;64.60;;;28.90;;
77217;SDS011;66214;51.302;17.068;2024-02-28T06:09:37;67.80;;;29.10;;
77217;SDS011;66214;51.302;17.068;2024-02-28T06:12:06;66.10;;;27.30;;
77217;SDS011;66214;51.302;17.068;2024-02-28T06:14:34;63.90;;;27.00;;
77217;SDS011;66214;51.302;17.068;2024-02-28T06:17:02;60.90;;;26.10;;
77217;SDS011;66214;51.302;17.068;2024-02-28T06:19:30;57.00;;;25.30;;
77217;SDS011;66214;51.302;17.068;2024-02-28T06:21:58;58.70;;;26.00;;
77217;SDS011;66214;51.302;17.068;2024-02-28T06:24:26;52.90;;;24.10;;
77217;SDS011;66214;51.302;17.068;2024-02-28T06:26:54;49.00;;;22.80;;
77217;SDS011;66214;51.302;17.068;2024-02-28T06:29:23;50.90;;;23.50;;
77217;SDS011;66214;51.302;17.068;2024-02-28T06:31:51;51.70;;;22.70;;
77217;SDS011;66214;51.302;17.068;2024-02-28T06:34:19;50.00;;;22.70;;
77217;SDS011;66214;51.302;17.068;2024-02-28T06:36:48;50.90;;;23.40;;
77217;SDS011;66214;51.302;17.068;2024-02-28T06:39:16;53.10;;;22.20;;
77217;SDS011;66214;51.302;17.068;2024-02-28T06:41:44;48.80;;;22.20;;
77217;SDS011;66214;51.302;17.068;2024-02-28T06:47:31;38.80;;;19.40;;
77217;SDS011;66214;51.302;17.068;2024-02-28T06:50:00;39.40;;;19.50;;
77217;SDS011;66214;51.302;17.068;2024-02-28T06:52:29;41.10;;;19.70;;
77217;SDS011;66214;51.302;17.068;2024-02-28T06:54:57;41.40;;;19.80;;
77217;SDS011;66214;51.302;17.068;2024-02-28T06:57:26;42.10;;;20.40;;
77217;SDS011;66214;51.302;17.068;2024-02-28T06:59:54;39.90;;;20.30;;
77217;SDS011;66214;51.302;17.068;2024-02-28T07:02:22;40.60;;;19.70;;
77217;SDS011;66214;51.302;17.068;2024-02-28T07:04:50;40.80;;;20.10;;
77217;SDS011;66214;51.302;17.068;2024-02-28T07:07:18;42.30;;;20.10;;
77217;SDS011;66214;51.302;17.068;2024-02-28T07:09:47;41.80;;;20.40;;
77217;SDS011;66214;51.302;17.068;2024-02-28T07:12:15;38.80;;;18.40;;
77217;SDS011;66214;51.302;17.068;2024-02-28T07:14:43;38.40;;;19.80;;
77217;SDS011;66214;51.302;17.068;2024-02-28T07:20:31;38.90;;;19.90;;
77217;SDS011;66214;51.302;17.068;2024-02-28T07:22:59;41.50;;;19.70;;
77217;SDS011;66214;51.302;17.068;2024-02-28T07:25:28;39.30;;;19.40;;
77217;SDS011;66214;51.302;17.068;2024-02-28T07:27:58;34.90;;;16.60;;
77217;SDS011;66214;51.302;17.068;2024-02-28T07:30:30;38.00;;;17.00;;
77217;SDS011;66214;51.302;17.068;2024-02-28T07:32:59;34.30;;;15.30;;
77217;SDS011;66214;51.302;17.068;2024-02-28T07:35:27;31.30;;;15.40;;
77217;SDS011;66214;51.302;17.068;2024-02-28T07:37:55;34.80;;;15.50;;
77217;SDS011;66214;51.302;17.068;2024-02-28T07:40:23;30.20;;;15.00;;
77217;SDS011;66214;51.302;17.068;2024-02-28T07:42:51;30.90;;;15.90;;
77217;SDS011;66214;51.302;17.068;2024-02-28T07:45:20;29.60;;;15.00;;
77217;SDS011;66214;51.302;17.068;2024-02-28T07:51:14;32.50;;;15.60;;
77217;SDS011;66214;51.302;17.068;2024-02-28T07:53:43;35.50;;;16.70;;
77217;SDS011;66214;51.302;17.068;2024-02-28T07:56:18;27.80;;;13.90;;
77217;SDS011;66214;51.302;17.068;2024-02-28T07:58:47;29.70;;;13.10;;
77217;SDS011;66214;51.302;17.068;2024-02-28T08:03:50;26.90;;;13.00;;
77217;SDS011;66214;51.302;17.068;2024-02-28T08:06:18;25.00;;;12.80;;
77217;SDS011;66214;51.302;17.068;2024-02-28T08:08:46;30.40;;;14.60;;
77217;SDS011;66214;51.302;17.068;2024-02-28T08:11:15;30.30;;;14.30;;
77217;SDS011;66214;51.302;17.068;2024-02-28T08:13:43;27.60;;;14.10;;
77217;SDS011;66214;51.302;17.068;2024-02-28T08:16:11;23.60;;;12.00;;
77217;SDS011;66214;51.302;17.068;2024-02-28T08:18:40;18.40;;;8.90;;
77217;SDS011;66214;51.302;17.068;2024-02-28T08:24:20;24.80;;;10.00;;
77217;SDS011;66214;51.302;17.068;2024-02-28T08:26:48;21.00;;;9.40;;
77217;SDS011;66214;51.302;17.068;2024-02-28T08:29:17;19.70;;;11.10;;
77217;SDS011;66214;51.302;17.068;2024-02-28T08:31:46;22.70;;;10.20;;
77217;SDS011;66214;51.302;17.068;2024-02-28T08:34:15;23.60;;;11.10;;
77217;SDS011;66214;51.302;17.068;2024-02-28T08:36:46;17.70;;;8.50;;
77217;SDS011;66214;51.302;17.068;2024-02-28T08:39:14;23.20;;;10.60;;
77217;SDS011;66214;51.302;17.068;2024-02-28T08:41:43;23.20;;;11.50;;
77217;SDS011;66214;51.302;17.068;2024-02-28T08:44:11;23.30;;;11.20;;
77217;SDS011;66214;51.302;17.068;2024-02-28T08:46:39;24.00;;;11.30;;
77217;SDS011;66214;51.302;17.068;2024-02-28T08:49:11;22.00;;;11.00;;
77217;SDS011;66214;51.302;17.068;2024-02-28T08:51:39;23.50;;;11.40;;
77217;SDS011;66214;51.302;17.068;2024-02-28T08:54:08;24.50;;;10.30;;
77217;SDS011;66214;51.302;17.068;2024-02-28T08:56:37;21.60;;;10.10;;
77217;SDS011;66214;51.302;17.068;2024-02-28T08:59:05;22.30;;;10.30;;
77217;SDS011;66214;51.302;17.068;2024-02-28T09:01:36;18.50;;;9.60;;
77217;SDS011;66214;51.302;17.068;2024-02-28T09:04:04;19.60;;;9.30;;
77217;SDS011;66214;51.302;17.068;2024-02-28T09:06:32;18.20;;;8.80;;
77217;SDS011;66214;51.302;17.068;2024-02-28T09:09:01;17.60;;;8.50;;
77217;SDS011;66214;51.302;17.068;2024-02-28T09:11:29;16.50;;;8.50;;
77217;SDS011;66214;51.302;17.068;2024-02-28T09:13:57;16.10;;;8.20;;
77217;SDS011;66214;51.302;17.068;2024-02-28T09:16:26;15.00;;;7.80;;
77217;SDS011;66214;51.302;17.068;2024-02-28T09:18:54;15.80;;;7.10;;
77217;SDS011;66214;51.302;17.068;2024-02-28T09:21:23;19.50;;;10.10;;
77217;SDS011;66214;51.302;17.068;2024-02-28T09:23:52;18.70;;;9.90;;
77217;SDS011;66214;51.302;17.068;2024-02-28T09:26:20;18.20;;;8.90;;
77217;SDS011;66214;51.302;17.068;2024-02-28T09:28:48;13.80;;;7.00;;
77217;SDS011;66214;51.302;17.068;2024-02-28T09:31:18;14.20;;;7.50;;
77217;SDS011;66214;51.302;17.068;2024-02-28T09:33:49;15.70;;;6.70;;
77217;SDS011;66214;51.302;17.068;2024-02-28T09:36:40;13.20;;;6.40;;
77217;SDS011;66214;51.302;17.068;2024-02-28T09:39:13;12.50;;;6.10;;
77217;SDS011;66214;51.302;17.068;2024-02-28T09:41:47;18.20;;;8.50;;
77217;SDS011;66214;51.302;17.068;2024-02-28T09:44:22;16.60;;;8.70;;
77217;SDS011;66214;51.302;17.068;2024-02-28T09:46:52;13.10;;;6.20;;
77217;SDS011;66214;51.302;17.068;2024-02-28T09:49:21;13.90;;;6.90;;
77217;SDS011;66214;51.302;17.068;2024-02-28T09:51:56;11.70;;;6.00;;
77217;SDS011;66214;51.302;17.068;2024-02-28T09:54:25;9.30;;;4.50;;
77217;SDS011;66214;51.302;17.068;2024-02-28T09:56:55;11.40;;;5.50;;
77217;SDS011;66214;51.302;17.068;2024-02-28T09:59:24;12.90;;;5.90;;
77217;SDS011;66214;51.302;17.068;2024-02-28T10:01:58;12.00;;;6.80;;
77217;SDS011;66214;51.302;17.068;2024-02-28T10:04:29;13.00;;;6.50;;
77217;SDS011;66214;51.302;17.068;2024-02-28T10:06:57;11.00;;;5.60;;
77217;SDS011;66214;51.302;17.068;2024-02-28T10:09:28;11.30;;;5.30;;
77217;SDS011;66214;51.302;17.068;2024-02-28T10:11:56;10.70;;;4.90;;
77217;SDS011;66214;51.302;17.068;2024-02-28T10:14:24;8.80;;;4.40;;
77217;SDS011;66214;51.302;17.068;2024-02-28T10:16:52;11.20;;;5.20;;
77217;SDS011;66214;51.302;17.068;2024-02-28T10:19:22;11.80;;;5.30;;
77217;SDS011;66214;51.302;17.068;2024-02-28T10:21:51;13.20;;;5.90;;
77217;SDS011;66214;51.302;17.068;2024-02-28T10:24:19;11.00;;;5.40;;
77217;SDS011;66214;51.302;17.068;2024-02-28T10:26:48;13.10;;;6.20;;
77217;SDS011;66214;51.302;17.068;2024-02-28T10:29:23;12.40;;;6.50;;
77217;SDS011;66214;51.302;17.068;2024-02-28T10:31:52;13.80;;;6.90;;
77217;SDS011;66214;51.302;17.068;2024-02-28T10:34:21;13.50;;;6.40;;
77217;SDS011;66214;51.302;17.068;2024-02-28T10:36:49;13.10;;;7.30;;
77217;SDS011;66214;51.302;17.068;2024-02-28T10:39:18;18.00;;;8.20;;
77217;SDS011;66214;51.302;17.068;2024-02-28T10:41:48;16.00;;;8.00;;
77217;SDS011;66214;51.302;17.068;2024-02-28T10:44:17;16.50;;;8.50;;
77217;SDS011;66214;51.302;17.068;2024-02-28T10:46:49;23.70;;;9.80;;
77217;SDS011;66214;51.302;17.068;2024-02-28T10:49:18;29.80;;;11.50;;
77217;SDS011;66214;51.302;17.068;2024-02-28T10:51:48;16.80;;;8.00;;
77217;SDS011;66214;51.302;17.068;2024-02-28T10:54:20;17.10;;;7.70;;
77217;SDS011;66214;51.302;17.068;2024-02-28T10:56:51;17.20;;;8.20;;
77217;SDS011;66214;51.302;17.068;2024-02-28T10:59:21;15.50;;;7.40;;
77217;SDS011;66214;51.302;17.068;2024-02-28T11:03:53;28.80;;;11.40;;
77217;SDS011;66214;51.302;17.068;2024-02-28T11:06:23;29.10;;;11.70;;
77217;SDS011;66214;51.302;17.068;2024-02-28T11:08:51;25.20;;;9.90;;
77217;SDS011;66214;51.302;17.068;2024-02-28T11:11:22;16.10;;;6.80;;
77217;SDS011;66214;51.302;17.068;2024-02-28T11:13:55;18.00;;;9.00;;
77217;SDS011;66214;51.302;17.068;2024-02-28T11:16:29;19.60;;;8.70;;
77217;SDS011;66214;51.302;17.068;2024-02-28T11:19:00;13.50;;;7.20;;
77217;SDS011;66214;51.302;17.068;2024-02-28T11:21:29;13.70;;;6.10;;
77217;SDS011;66214;51.302;17.068;2024-02-28T11:24:02;24.20;;;11.30;;
77217;SDS011;66214;51.302;17.068;2024-02-28T11:26:33;15.50;;;8.30;;
77217;SDS011;66214;51.302;17.068;2024-02-28T11:29:02;27.70;;;10.70;;
77217;SDS011;66214;51.302;17.068;2024-02-28T11:35:01;16.90;;;7.20;;
77217;SDS011;66214;51.302;17.068;2024-02-28T11:37:29;10.30;;;5.00;;
77217;SDS011;66214;51.302;17.068;2024-02-28T11:39:59;11.30;;;5.30;;
77217;SDS011;66214;51.302;17.068;2024-02-28T11:42:28;12.30;;;6.00;;
77217;SDS011;66214;51.302;17.068;2024-02-28T11:44:56;14.10;;;5.50;;
77217;SDS011;66214;51.302;17.068;2024-02-28T11:47:25;11.90;;;4.80;;
77217;SDS011;66214;51.302;17.068;2024-02-28T11:49:58;14.20;;;5.60;;
77217;SDS011;66214;51.302;17.068;2024-02-28T11:52:31;12.00;;;6.00;;
77217;SDS011;66214;51.302;17.068;2024-02-28T11:55:04;12.90;;;6.50;;
77217;SDS011;66214;51.302;17.068;2024-02-28T11:57:32;12.70;;;6.80;;
77217;SDS011;66214;51.302;17.068;2024-02-28T12:00:07;12.90;;;5.70;;
77217;SDS011;66214;51.302;17.068;2024-02-28T12:02:42;11.10;;;5.70;;
77217;SDS011;66214;51.302;17.068;2024-02-28T12:05:11;14.00;;;6.40;;
77217;SDS011;66214;51.302;17.068;2024-02-28T12:07:41;13.40;;;5.80;;
77217;SDS011;66214;51.302;17.068;2024-02-28T12:10:09;16.20;;;7.50;;
77217;SDS011;66214;51.302;17.068;2024-02-28T12:12:40;12.40;;;5.60;;
77217;SDS011;66214;51.302;17.068;2024-02-28T12:18:38;14.50;;;6.00;;
77217;SDS011;66214;51.302;17.068;2024-02-28T12:21:06;14.50;;;7.40;;
77217;SDS011;66214;51.302;17.068;2024-02-28T12:23:36;13.80;;;6.50;;
77217;SDS011;66214;51.302;17.068;2024-02-28T12:26:04;15.10;;;7.70;;
77217;SDS011;66214;51.302;17.068;2024-02-28T12:28:34;15.70;;;7.40;;
77217;SDS011;66214;51.302;17.068;2024-02-28T12:31:03;16.20;;;8.30;;
77217;SDS011;66214;51.302;17.068;2024-02-28T12:33:33;18.50;;;8.70;;
77217;SDS011;66214;51.302;17.068;2024-02-28T12:36:01;19.00;;;9.10;;
77217;SDS011;66214;51.302;17.068;2024-02-28T12:38:31;20.30;;;9.70;;
77217;SDS011;66214;51.302;17.068;2024-02-28T12:44:19;15.90;;;7.90;;
77217;SDS011;66214;51.302;17.068;2024-02-28T12:46:48;16.00;;;7.70;;
77217;SDS011;66214;51.302;17.068;2024-02-28T12:49:16;17.60;;;9.10;;
77217;SDS011;66214;51.302;17.068;2024-02-28T12:51:45;20.30;;;9.80;;
77217;SDS011;66214;51.302;17.068;2024-02-28T12:54:14;24.60;;;11.00;;
77217;SDS011;66214;51.302;17.068;2024-02-28T12:56:43;20.40;;;8.90;;
77217;SDS011;66214;51.302;17.068;2024-02-28T12:59:12;20.20;;;9.10;;
77217;SDS011;66214;51.302;17.068;2024-02-28T13:01:42;18.00;;;8.30;;
77217;SDS011;66214;51.302;17.068;2024-02-28T13:04:11;23.70;;;9.50;;
77217;SDS011;66214;51.302;17.068;2024-02-28T13:06:40;20.80;;;8.30;;
77217;SDS011;66214;51.302;17.068;2024-02-28T13:09:09;18.80;;;8.40;;
77217;SDS011;66214;51.302;17.068;2024-02-28T13:11:41;20.20;;;10.10;;
77217;SDS011;66214;51.302;17.068;2024-02-28T13:14:10;26.00;;;11.50;;
77217;SDS011;66214;51.302;17.068;2024-02-28T13:16:39;23.50;;;11.40;;
77217;SDS011;66214;51.302;17.068;2024-02-28T13:19:08;46.60;;;20.90;;
77217;SDS011;66214;51.302;17.068;2024-02-28T13:21:38;23.30;;;10.40;;
77217;SDS011;66214;51.302;17.068;2024-02-28T13:24:08;25.30;;;11.50;;
77217;SDS011;66214;51.302;17.068;2024-02-28T13:26:37;23.20;;;9.90;;
77217;SDS011;66214;51.302;17.068;2024-02-28T13:29:05;25.70;;;11.60;;
77217;SDS011;66214;51.302;17.068;2024-02-28T13:31:35;21.50;;;10.70;;
77217;SDS011;66214;51.302;17.068;2024-02-28T13:34:04;21.70;;;9.50;;
77217;SDS011;66214;51.302;17.068;2024-02-28T13:36:33;19.40;;;9.40;;
77217;SDS011;66214;51.302;17.068;2024-02-28T13:39:06;21.70;;;10.50;;
77217;SDS011;66214;51.302;17.068;2024-02-28T13:41:34;17.10;;;8.50;;
77217;SDS011;66214;51.302;17.068;2024-02-28T13:44:04;17.40;;;7.40;;
77217;SDS011;66214;51.302;17.068;2024-02-28T13:46:32;15.60;;;6.50;;
77217;SDS011;66214;51.302;17.068;2024-02-28T13:49:02;16.60;;;7.30;;
77217;SDS011;66214;51.302;17.068;2024-02-28T13:51:34;17.70;;;7.80;;
77217;SDS011;66214;51.302;17.068;2024-02-28T13:54:03;18.40;;;8.90;;
77217;SDS011;66214;51.302;17.068;2024-02-28T13:56:31;14.40;;;7.30;;
77217;SDS011;66214;51.302;17.068;2024-02-28T13:59:00;15.00;;;7.20;;
77217;SDS011;66214;51.302;17.068;2024-02-28T14:03:53;13.70;;;6.60;;
77217;SDS011;66214;51.302;17.068;2024-02-28T14:06:23;15.50;;;7.40;;
77217;SDS011;66214;51.302;17.068;2024-02-28T14:08:54;15.80;;;7.80;;
77217;SDS011;66214;51.302;17.068;2024-02-28T14:11:22;18.70;;;8.10;;
77217;SDS011;66214;51.302;17.068;2024-02-28T14:13:51;14.40;;;6.70;;
77217;SDS011;66214;51.302;17.068;2024-02-28T14:16:20;16.70;;;6.90;;
77217;SDS011;66214;51.302;17.068;2024-02-28T14:18:51;13.50;;;6.30;;
77217;SDS011;66214;51.302;17.068;2024-02-28T14:24:46;18.10;;;9.00;;
77217;SDS011;66214;51.302;17.068;2024-02-28T14:27:18;17.40;;;7.50;;
77217;SDS011;66214;51.302;17.068;2024-02-28T14:29:48;18.80;;;8.90;;
77217;SDS011;66214;51.302;17.068;2024-02-28T14:32:18;18.50;;;8.70;;
77217;SDS011;66214;51.302;17.068;2024-02-28T14:34:49;19.40;;;9.50;;
77217;SDS011;66214;51.302;17.068;2024-02-28T14:37:19;21.00;;;9.40;;
77217;SDS011;66214;51.302;17.068;2024-02-28T14:43:11;21.30;;;9.20;;
77217;SDS011;66214;51.302;17.068;2024-02-28T14:45:40;21.40;;;8.80;;
77217;SDS011;66214;51.302;17.068;2024-02-28T14:48:09;22.10;;;9.10;;
77217;SDS011;66214;51.302;17.068;2024-02-28T14:50:39;25.10;;;10.60;;
77217;SDS011;66214;51.302;17.068;2024-02-28T14:53:08;23.00;;;9.50;;
77217;SDS011;66214;51.302;17.068;2024-02-28T14:59:04;25.20;;;10.30;;
77217;SDS011;66214;51.302;17.068;2024-02-28T15:01:33;21.10;;;10.00;;
77217;SDS011;66214;51.302;17.068;2024-02-28T15:04:10;24.40;;;10.20;;
77217;SDS011;66214;51.302;17.068;2024-02-28T15:06:43;20.00;;;8.70;;
77217;SDS011;66214;51.302;17.068;2024-02-28T15:09:12;26.70;;;10.70;;
77217;SDS011;66214;51.302;17.068;2024-02-28T15:11:42;32.60;;;13.90;;
77217;SDS011;66214;51.302;17.068;2024-02-28T15:14:11;29.30;;;13.80;;
77217;SDS011;66214;51.302;17.068;2024-02-28T15:16:40;28.70;;;12.40;;
77217;SDS011;66214;51.302;17.068;2024-02-28T15:19:10;35.10;;;14.70;;
77217;SDS011;66214;51.302;17.068;2024-02-28T15:21:39;30.50;;;13.60;;
77217;SDS011;66214;51.302;17.068;2024-02-28T15:24:07;32.60;;;13.80;;
77217;SDS011;66214;51.302;17.068;2024-02-28T15:26:37;41.70;;;16.30;;